QTR789A OMDB-OJAI
Flight info
| Callsign | QTR789A |
|---|---|
| Flight time | N/A |
| Altitude | 34000 |
| Route | ANVIX R401 GIDIS G783 ELUDA N563 VUXOD L519 ATUDO/N0490F400 M318 GOLGU M550 RIBOT DCT SITUK M321 IVONU Z710 GAS G662 HIL T540 ENABI L550 EGSIS M449 MUNRA |
| Aircraft | A359/H-SDE2E3GHIJ3J4J5LM1ORWXY/LB1D1 |
Departure
| Time | 2026-05-04 11:02 |
|---|---|
| Airport | Dubai International Airport (OMDB) |
Arrival
| Time | N/A |
|---|---|
| Airport | Queen Alia International Airport (OJAI) |
| Time | Latitude | Longitude | Altitude | Speed | Heading |
|---|---|---|---|---|---|
| 2026-05-04 10:25 | 25.25274 | 55.35567 | 27 ft | 0 kts | 211° |
| 2026-05-04 10:51 | 25.25371 | 55.35630 | 26 ft | 4 kts | 170° |
| 2026-05-04 10:52 | 25.25384 | 55.35616 | 27 ft | 4 kts | 108° |
| 2026-05-04 10:52 | 25.25392 | 55.35591 | 27 ft | 1 kts | 122° |
| 2026-05-04 10:52 | 25.25395 | 55.35587 | 27 ft | 0 kts | 122° |
| 2026-05-04 10:56 | 25.24976 | 55.36333 | 27 ft | 31 kts | 122° |
| 2026-05-04 10:56 | 25.24858 | 55.36542 | 27 ft | 33 kts | 122° |
| 2026-05-04 10:56 | 25.24770 | 55.36781 | 28 ft | 34 kts | 105° |
| 2026-05-04 10:57 | 25.24661 | 55.37012 | 28 ft | 35 kts | 121° |
| 2026-05-04 10:57 | 25.24526 | 55.37250 | 27 ft | 37 kts | 122° |
| 2026-05-04 10:57 | 25.24426 | 55.37510 | 27 ft | 38 kts | 93° |
| 2026-05-04 10:57 | 25.24336 | 55.37774 | 28 ft | 38 kts | 121° |
| 2026-05-04 10:58 | 25.24198 | 55.38023 | 28 ft | 39 kts | 122° |
| 2026-05-04 10:58 | 25.24052 | 55.38280 | 28 ft | 40 kts | 122° |
| 2026-05-04 10:58 | 25.23915 | 55.38522 | 28 ft | 28 kts | 122° |
| 2026-05-04 10:58 | 25.23813 | 55.38703 | 28 ft | 29 kts | 122° |
| 2026-05-04 10:59 | 25.23703 | 55.38899 | 28 ft | 31 kts | 121° |
| 2026-05-04 10:59 | 25.23585 | 55.39111 | 28 ft | 33 kts | 122° |
| 2026-05-04 10:59 | 25.23458 | 55.39335 | 28 ft | 36 kts | 122° |
| 2026-05-04 10:59 | 25.23401 | 55.39447 | 28 ft | 0 kts | 100° |
| 2026-05-04 11:00 | 25.23400 | 55.39451 | 28 ft | 2 kts | 98° |
| 2026-05-04 11:01 | 25.23891 | 55.38940 | 31 ft | 118 kts | 301° |
| 2026-05-04 11:02 | 25.24460 | 55.37930 | 150 ft | 182 kts | 300° |
| 2026-05-04 11:02 | 25.25202 | 55.36650 | 733 ft | 213 kts | 301° |
| 2026-05-04 11:05 | 25.19867 | 55.16947 | 9259 ft | 285 kts | 164° |
| 2026-05-04 11:06 | 25.18147 | 55.18083 | 9787 ft | 296 kts | 134° |
| 2026-05-04 11:06 | 25.16988 | 55.19974 | 10192 ft | 308 kts | 116° |
| 2026-05-04 11:06 | 25.16013 | 55.22105 | 10790 ft | 314 kts | 115° |
| 2026-05-04 11:06 | 25.15016 | 55.24261 | 11485 ft | 317 kts | 116° |
| 2026-05-04 11:08 | 25.07908 | 55.40042 | 16229 ft | 341 kts | 112° |
| 2026-05-04 11:10 | 25.00351 | 55.58483 | 18702 ft | 419 kts | 120° |
| 2026-05-04 11:12 | 24.88541 | 55.78368 | 21333 ft | 460 kts | 126° |
| 2026-05-04 11:12 | 24.86641 | 55.81226 | 21764 ft | 465 kts | 126° |
| 2026-05-04 11:12 | 24.84724 | 55.84112 | 22236 ft | 468 kts | 126° |
| 2026-05-04 11:12 | 24.82787 | 55.87009 | 22745 ft | 470 kts | 127° |
| 2026-05-04 11:13 | 24.80599 | 55.89693 | 23189 ft | 473 kts | 139° |
| 2026-05-04 11:13 | 24.77919 | 55.91784 | 23607 ft | 474 kts | 154° |
| 2026-05-04 11:13 | 24.74912 | 55.93105 | 23984 ft | 473 kts | 168° |
| 2026-05-04 11:13 | 24.71672 | 55.93644 | 24379 ft | 470 kts | 180° |
| 2026-05-04 11:14 | 24.68392 | 55.93743 | 24780 ft | 472 kts | 184° |
| 2026-05-04 11:14 | 24.65116 | 55.93558 | 25219 ft | 471 kts | 192° |
| 2026-05-04 11:14 | 24.61924 | 55.92817 | 25664 ft | 468 kts | 201° |
| 2026-05-04 11:16 | 24.44061 | 55.78034 | 28817 ft | 470 kts | 227° |
| 2026-05-04 11:16 | 24.41610 | 55.75646 | 29244 ft | 473 kts | 227° |
| 2026-05-04 11:16 | 24.39133 | 55.73250 | 29674 ft | 476 kts | 227° |
| 2026-05-04 11:17 | 24.36633 | 55.70845 | 30051 ft | 479 kts | 226° |
| 2026-05-04 11:17 | 24.34121 | 55.68440 | 30402 ft | 481 kts | 226° |
| 2026-05-04 11:19 | 24.12929 | 55.56615 | 32715 ft | 511 kts | 200° |
| 2026-05-04 11:19 | 24.09501 | 55.55629 | 33218 ft | 507 kts | 200° |
| 2026-05-04 11:19 | 24.06091 | 55.54649 | 33655 ft | 506 kts | 200° |
| 2026-05-04 11:19 | 24.02736 | 55.53673 | 33819 ft | 505 kts | 200° |
| 2026-05-04 11:20 | 23.95968 | 55.51682 | 33808 ft | 503 kts | 200° |
| 2026-05-04 11:20 | 23.89754 | 55.48616 | 33811 ft | 483 kts | 224° |
| 2026-05-04 11:22 | 23.91471 | 55.28079 | 33799 ft | 469 kts | 329° |
| 2026-05-04 11:22 | 23.94496 | 55.26698 | 33800 ft | 473 kts | 334° |
| 2026-05-04 11:23 | 24.00104 | 55.23133 | 33801 ft | 464 kts | 314° |
| 2026-05-04 11:24 | 24.08123 | 55.04428 | 33798 ft | 459 kts | 298° |
| 2026-05-04 11:25 | 24.09761 | 55.01418 | 33795 ft | 460 kts | 300° |
| 2026-05-04 11:25 | 24.13181 | 54.95496 | 33803 ft | 461 kts | 301° |
| 2026-05-04 11:27 | 24.28687 | 54.68950 | 33801 ft | 461 kts | 300° |
| 2026-05-04 11:28 | 24.29963 | 54.65751 | 33807 ft | 458 kts | 284° |
| 2026-05-04 11:28 | 24.30356 | 54.62305 | 33799 ft | 457 kts | 269° |
| 2026-05-04 11:28 | 24.29849 | 54.58912 | 33805 ft | 460 kts | 255° |
| 2026-05-04 11:28 | 24.28463 | 54.55734 | 33800 ft | 468 kts | 239° |
| 2026-05-04 11:29 | 24.26288 | 54.53052 | 33800 ft | 478 kts | 224° |
| 2026-05-04 11:29 | 24.23465 | 54.51071 | 33794 ft | 489 kts | 209° |
| 2026-05-04 11:29 | 24.20180 | 54.49949 | 33797 ft | 502 kts | 194° |
| 2026-05-04 11:29 | 24.16660 | 54.49787 | 33794 ft | 514 kts | 179° |
| 2026-05-04 11:31 | 24.03266 | 54.70450 | 33790 ft | 542 kts | 75° |
| 2026-05-04 11:33 | 24.22234 | 54.81705 | 33792 ft | 472 kts | 329° |
| 2026-05-04 11:33 | 24.24929 | 54.79735 | 33800 ft | 463 kts | 314° |
| 2026-05-04 11:33 | 24.26981 | 54.77062 | 33799 ft | 458 kts | 300° |
| 2026-05-04 11:34 | 24.28278 | 54.73893 | 33798 ft | 456 kts | 287° |
| 2026-05-04 11:34 | 24.29131 | 54.70549 | 33797 ft | 457 kts | 284° |
| 2026-05-04 11:34 | 24.30092 | 54.63669 | 33797 ft | 458 kts | 270° |
| 2026-05-04 11:35 | 24.29613 | 54.60212 | 33801 ft | 461 kts | 255° |
| 2026-05-04 11:35 | 24.28281 | 54.57058 | 33801 ft | 467 kts | 240° |
| 2026-05-04 11:35 | 24.26142 | 54.54345 | 33791 ft | 477 kts | 225° |
| 2026-05-04 11:35 | 24.23351 | 54.52316 | 33800 ft | 488 kts | 211° |
| 2026-05-04 11:36 | 24.17240 | 54.49040 | 33801 ft | 487 kts | 217° |
| 2026-05-04 11:36 | 24.12390 | 54.44098 | 33800 ft | 472 kts | 239° |
| 2026-05-04 11:37 | 24.10819 | 54.41025 | 33794 ft | 466 kts | 250° |
| 2026-05-04 11:37 | 24.09809 | 54.37675 | 33795 ft | 463 kts | 259° |
| 2026-05-04 11:37 | 24.09214 | 54.30707 | 33794 ft | 461 kts | 267° |
| 2026-05-04 11:38 | 24.07983 | 54.23805 | 33791 ft | 465 kts | 253° |
| 2026-05-04 11:38 | 24.05196 | 54.17387 | 33797 ft | 469 kts | 244° |
| 2026-05-04 11:39 | 24.02009 | 54.11192 | 33796 ft | 470 kts | 243° |
| 2026-05-04 11:41 | 23.90524 | 53.89544 | 33798 ft | 470 kts | 243° |
| 2026-05-04 11:41 | 23.87268 | 53.83402 | 33798 ft | 470 kts | 243° |
| 2026-05-04 11:42 | 23.83989 | 53.77219 | 33799 ft | 470 kts | 243° |
| 2026-05-04 11:42 | 23.80706 | 53.71038 | 33803 ft | 471 kts | 243° |
| 2026-05-04 11:43 | 23.77414 | 53.64848 | 33805 ft | 471 kts | 243° |
| 2026-05-04 11:43 | 23.74143 | 53.58707 | 33791 ft | 472 kts | 242° |
| 2026-05-04 11:44 | 23.70840 | 53.52511 | 33797 ft | 473 kts | 242° |
| 2026-05-04 11:44 | 23.67542 | 53.46302 | 33799 ft | 473 kts | 243° |
| 2026-05-04 11:45 | 23.64255 | 53.40094 | 33797 ft | 473 kts | 243° |
| 2026-05-04 11:45 | 23.60986 | 53.33929 | 33798 ft | 473 kts | 243° |
| 2026-05-04 11:46 | 23.57695 | 53.27733 | 33799 ft | 473 kts | 243° |
| 2026-05-04 11:46 | 23.54397 | 53.21535 | 33801 ft | 473 kts | 242° |
| 2026-05-04 11:47 | 23.51095 | 53.15337 | 33792 ft | 473 kts | 242° |
| 2026-05-04 11:47 | 23.47789 | 53.09139 | 33793 ft | 473 kts | 242° |
| 2026-05-04 11:48 | 23.44502 | 53.02986 | 33794 ft | 473 kts | 242° |
| 2026-05-04 11:48 | 23.41189 | 52.96789 | 33793 ft | 473 kts | 242° |
| 2026-05-04 11:49 | 23.37924 | 52.90572 | 33791 ft | 473 kts | 243° |
| 2026-05-04 11:49 | 23.34736 | 52.84312 | 33790 ft | 473 kts | 243° |
| 2026-05-04 11:50 | 23.31568 | 52.78097 | 33785 ft | 473 kts | 243° |
| 2026-05-04 11:50 | 23.28365 | 52.71854 | 33784 ft | 473 kts | 243° |
| 2026-05-04 11:51 | 23.25148 | 52.65609 | 33779 ft | 473 kts | 243° |
| 2026-05-04 11:51 | 23.21929 | 52.59371 | 33783 ft | 473 kts | 243° |
| 2026-05-04 11:52 | 23.18747 | 52.53117 | 33778 ft | 472 kts | 246° |
| 2026-05-04 11:52 | 23.16324 | 52.46557 | 33779 ft | 471 kts | 251° |
| 2026-05-04 11:53 | 23.14688 | 52.39688 | 33779 ft | 469 kts | 264° |
| 2026-05-04 11:53 | 23.14358 | 52.32618 | 33774 ft | 469 kts | 269° |